sensor_id;sensor_type;location;lat;lon;timestamp;P1;durP1;ratioP1;P2;durP2;ratioP2
579;SDS011;276;48.392;9.950;2023-06-01T00:00:45;6.17;;;5.20;;
579;SDS011;276;48.392;9.950;2023-06-01T00:03:11;4.83;;;4.43;;
579;SDS011;276;48.392;9.950;2023-06-01T00:05:37;5.30;;;4.80;;
579;SDS011;276;48.392;9.950;2023-06-01T00:08:05;5.63;;;5.13;;
579;SDS011;276;48.392;9.950;2023-06-01T00:10:33;5.07;;;4.40;;
579;SDS011;276;48.392;9.950;2023-06-01T00:13:03;5.13;;;4.63;;
579;SDS011;276;48.392;9.950;2023-06-01T00:15:29;5.10;;;4.57;;
579;SDS011;276;48.392;9.950;2023-06-01T00:17:57;4.73;;;4.33;;
579;SDS011;276;48.392;9.950;2023-06-01T00:20:25;5.50;;;5.07;;
579;SDS011;276;48.392;9.950;2023-06-01T00:22:53;6.63;;;5.00;;
579;SDS011;276;48.392;9.950;2023-06-01T00:25:20;5.77;;;5.27;;
579;SDS011;276;48.392;9.950;2023-06-01T00:27:46;6.70;;;5.40;;
579;SDS011;276;48.392;9.950;2023-06-01T00:30:12;7.40;;;4.83;;
579;SDS011;276;48.392;9.950;2023-06-01T00:32:38;5.23;;;4.67;;
579;SDS011;276;48.392;9.950;2023-06-01T00:35:04;5.07;;;4.67;;
579;SDS011;276;48.392;9.950;2023-06-01T00:37:30;5.17;;;4.70;;
579;SDS011;276;48.392;9.950;2023-06-01T00:39:55;4.83;;;4.33;;
579;SDS011;276;48.392;9.950;2023-06-01T00:42:21;4.60;;;4.20;;
579;SDS011;276;48.392;9.950;2023-06-01T00:44:51;6.17;;;5.57;;
579;SDS011;276;48.392;9.950;2023-06-01T00:47:18;5.27;;;4.63;;
579;SDS011;276;48.392;9.950;2023-06-01T00:49:44;5.33;;;4.83;;
579;SDS011;276;48.392;9.950;2023-06-01T00:52:10;5.57;;;5.07;;
579;SDS011;276;48.392;9.950;2023-06-01T00:54:41;5.20;;;4.70;;
579;SDS011;276;48.392;9.950;2023-06-01T00:57:08;4.93;;;4.50;;
579;SDS011;276;48.392;9.950;2023-06-01T00:59:36;5.10;;;4.23;;
579;SDS011;276;48.392;9.950;2023-06-01T01:02:03;5.83;;;5.00;;
579;SDS011;276;48.392;9.950;2023-06-01T01:04:29;5.00;;;4.50;;
579;SDS011;276;48.392;9.950;2023-06-01T01:12:38;6.00;;;5.50;;
579;SDS011;276;48.392;9.950;2023-06-01T01:15:26;7.77;;;4.43;;
579;SDS011;276;48.392;9.950;2023-06-01T01:18:02;5.23;;;4.37;;
579;SDS011;276;48.392;9.950;2023-06-01T01:20:40;4.80;;;4.40;;
579;SDS011;276;48.392;9.950;2023-06-01T01:25:57;4.30;;;3.90;;
579;SDS011;276;48.392;9.950;2023-06-01T01:28:32;5.23;;;4.40;;
579;SDS011;276;48.392;9.950;2023-06-01T01:31:03;5.17;;;4.77;;
579;SDS011;276;48.392;9.950;2023-06-01T01:33:36;6.13;;;4.97;;
579;SDS011;276;48.392;9.950;2023-06-01T01:36:06;5.87;;;5.37;;
579;SDS011;276;48.392;9.950;2023-06-01T01:38:37;5.87;;;4.70;;
579;SDS011;276;48.392;9.950;2023-06-01T01:41:03;4.47;;;4.13;;
579;SDS011;276;48.392;9.950;2023-06-01T01:43:29;6.67;;;5.17;;
579;SDS011;276;48.392;9.950;2023-06-01T01:48:43;7.80;;;4.90;;
579;SDS011;276;48.392;9.950;2023-06-01T01:51:52;5.73;;;5.13;;
579;SDS011;276;48.392;9.950;2023-06-01T01:54:19;6.57;;;4.53;;
579;SDS011;276;48.392;9.950;2023-06-01T01:56:46;4.50;;;4.10;;
579;SDS011;276;48.392;9.950;2023-06-01T01:59:14;5.27;;;4.80;;
579;SDS011;276;48.392;9.950;2023-06-01T02:01:42;5.80;;;4.33;;
579;SDS011;276;48.392;9.950;2023-06-01T02:04:11;5.70;;;5.10;;
579;SDS011;276;48.392;9.950;2023-06-01T02:06:37;5.50;;;5.00;;
579;SDS011;276;48.392;9.950;2023-06-01T02:09:03;6.57;;;4.90;;
579;SDS011;276;48.392;9.950;2023-06-01T02:11:32;6.67;;;4.80;;
579;SDS011;276;48.392;9.950;2023-06-01T02:13:59;6.03;;;5.03;;
579;SDS011;276;48.392;9.950;2023-06-01T02:16:24;5.90;;;5.30;;
579;SDS011;276;48.392;9.950;2023-06-01T02:18:53;5.20;;;4.70;;
579;SDS011;276;48.392;9.950;2023-06-01T02:21:21;5.03;;;4.60;;
579;SDS011;276;48.392;9.950;2023-06-01T02:23:51;7.83;;;5.00;;
579;SDS011;276;48.392;9.950;2023-06-01T02:26:19;5.40;;;4.90;;
579;SDS011;276;48.392;9.950;2023-06-01T02:28:45;5.53;;;4.93;;
579;SDS011;276;48.392;9.950;2023-06-01T02:31:12;5.67;;;5.13;;
579;SDS011;276;48.392;9.950;2023-06-01T02:33:39;5.17;;;4.40;;
579;SDS011;276;48.392;9.950;2023-06-01T02:36:05;4.90;;;4.50;;
579;SDS011;276;48.392;9.950;2023-06-01T02:38:31;6.57;;;5.97;;
579;SDS011;276;48.392;9.950;2023-06-01T02:40:56;5.47;;;4.90;;
579;SDS011;276;48.392;9.950;2023-06-01T02:43:22;5.27;;;4.77;;
579;SDS011;276;48.392;9.950;2023-06-01T02:45:48;5.43;;;4.83;;
579;SDS011;276;48.392;9.950;2023-06-01T02:48:13;6.60;;;6.10;;
579;SDS011;276;48.392;9.950;2023-06-01T02:50:39;5.90;;;5.10;;
579;SDS011;276;48.392;9.950;2023-06-01T02:53:05;6.63;;;5.57;;
579;SDS011;276;48.392;9.950;2023-06-01T02:55:31;6.80;;;4.93;;
579;SDS011;276;48.392;9.950;2023-06-01T02:57:56;4.50;;;4.10;;
579;SDS011;276;48.392;9.950;2023-06-01T03:00:24;6.20;;;5.70;;
579;SDS011;276;48.392;9.950;2023-06-01T03:02:52;8.43;;;5.60;;
579;SDS011;276;48.392;9.950;2023-06-01T03:05:18;5.77;;;5.20;;
579;SDS011;276;48.392;9.950;2023-06-01T03:07:46;6.33;;;4.87;;
579;SDS011;276;48.392;9.950;2023-06-01T03:10:12;6.53;;;5.53;;
579;SDS011;276;48.392;9.950;2023-06-01T03:12:38;6.73;;;5.57;;
579;SDS011;276;48.392;9.950;2023-06-01T03:15:04;5.87;;;5.27;;
579;SDS011;276;48.392;9.950;2023-06-01T03:17:33;6.30;;;5.70;;
579;SDS011;276;48.392;9.950;2023-06-01T03:20:00;5.90;;;5.40;;
579;SDS011;276;48.392;9.950;2023-06-01T03:22:29;7.27;;;5.30;;
579;SDS011;276;48.392;9.950;2023-06-01T03:24:57;6.13;;;5.03;;
579;SDS011;276;48.392;9.950;2023-06-01T03:27:22;7.10;;;5.60;;
579;SDS011;276;48.392;9.950;2023-06-01T03:29:48;9.60;;;5.73;;
579;SDS011;276;48.392;9.950;2023-06-01T03:32:16;6.80;;;6.10;;
579;SDS011;276;48.392;9.950;2023-06-01T03:34:42;6.40;;;5.30;;
579;SDS011;276;48.392;9.950;2023-06-01T03:37:07;6.43;;;5.73;;
579;SDS011;276;48.392;9.950;2023-06-01T03:39:35;5.50;;;5.00;;
579;SDS011;276;48.392;9.950;2023-06-01T03:42:01;8.20;;;5.27;;
579;SDS011;276;48.392;9.950;2023-06-01T03:44:29;7.30;;;6.07;;
579;SDS011;276;48.392;9.950;2023-06-01T03:46:55;5.93;;;5.40;;
579;SDS011;276;48.392;9.950;2023-06-01T03:49:20;5.53;;;5.13;;
579;SDS011;276;48.392;9.950;2023-06-01T03:51:46;8.50;;;5.33;;
579;SDS011;276;48.392;9.950;2023-06-01T03:54:14;9.67;;;6.23;;
579;SDS011;276;48.392;9.950;2023-06-01T03:56:40;6.30;;;5.80;;
579;SDS011;276;48.392;9.950;2023-06-01T03:59:08;9.60;;;6.67;;
579;SDS011;276;48.392;9.950;2023-06-01T04:01:36;11.73;;;10.53;;
579;SDS011;276;48.392;9.950;2023-06-01T04:04:04;8.90;;;7.57;;
579;SDS011;276;48.392;9.950;2023-06-01T04:06:33;7.00;;;6.40;;
579;SDS011;276;48.392;9.950;2023-06-01T04:09:03;7.93;;;6.17;;
579;SDS011;276;48.392;9.950;2023-06-01T04:11:33;7.13;;;6.43;;
579;SDS011;276;48.392;9.950;2023-06-01T04:14:03;6.07;;;5.47;;
579;SDS011;276;48.392;9.950;2023-06-01T04:16:31;10.10;;;8.00;;
579;SDS011;276;48.392;9.950;2023-06-01T04:18:57;12.30;;;11.10;;
579;SDS011;276;48.392;9.950;2023-06-01T04:21:23;10.20;;;8.60;;
579;SDS011;276;48.392;9.950;2023-06-01T04:23:53;6.80;;;6.20;;
579;SDS011;276;48.392;9.950;2023-06-01T04:26:19;7.33;;;6.33;;
579;SDS011;276;48.392;9.950;2023-06-01T04:28:49;6.50;;;5.90;;
579;SDS011;276;48.392;9.950;2023-06-01T04:31:15;8.20;;;6.47;;
579;SDS011;276;48.392;9.950;2023-06-01T04:33:46;6.03;;;5.53;;
579;SDS011;276;48.392;9.950;2023-06-01T04:36:17;9.20;;;8.33;;
579;SDS011;276;48.392;9.950;2023-06-01T04:38:46;8.33;;;7.63;;
579;SDS011;276;48.392;9.950;2023-06-01T04:41:19;10.87;;;9.40;;
579;SDS011;276;48.392;9.950;2023-06-01T04:43:47;9.10;;;8.30;;
579;SDS011;276;48.392;9.950;2023-06-01T04:46:25;7.00;;;6.30;;
579;SDS011;276;48.392;9.950;2023-06-01T04:48:54;8.73;;;7.97;;
579;SDS011;276;48.392;9.950;2023-06-01T04:51:22;9.43;;;8.67;;
579;SDS011;276;48.392;9.950;2023-06-01T04:53:49;11.60;;;9.90;;
579;SDS011;276;48.392;9.950;2023-06-01T04:56:26;9.50;;;8.77;;
579;SDS011;276;48.392;9.950;2023-06-01T04:58:54;7.70;;;7.00;;
579;SDS011;276;48.392;9.950;2023-06-01T05:01:24;9.20;;;8.30;;
579;SDS011;276;48.392;9.950;2023-06-01T05:03:54;8.50;;;7.70;;
579;SDS011;276;48.392;9.950;2023-06-01T05:06:23;7.67;;;6.97;;
579;SDS011;276;48.392;9.950;2023-06-01T05:08:50;13.03;;;9.20;;
579;SDS011;276;48.392;9.950;2023-06-01T05:11:15;11.47;;;10.27;;
579;SDS011;276;48.392;9.950;2023-06-01T05:13:48;11.90;;;11.00;;
579;SDS011;276;48.392;9.950;2023-06-01T05:16:18;11.27;;;10.27;;
579;SDS011;276;48.392;9.950;2023-06-01T05:18:46;9.37;;;8.37;;
579;SDS011;276;48.392;9.950;2023-06-01T05:21:12;8.27;;;7.20;;
579;SDS011;276;48.392;9.950;2023-06-01T05:23:37;8.17;;;6.73;;
579;SDS011;276;48.392;9.950;2023-06-01T05:26:03;7.83;;;7.23;;
579;SDS011;276;48.392;9.950;2023-06-01T05:28:29;7.97;;;7.17;;
579;SDS011;276;48.392;9.950;2023-06-01T05:30:59;6.90;;;6.30;;
579;SDS011;276;48.392;9.950;2023-06-01T05:33:24;6.30;;;5.70;;
579;SDS011;276;48.392;9.950;2023-06-01T05:35:50;5.33;;;4.83;;
579;SDS011;276;48.392;9.950;2023-06-01T05:38:16;5.70;;;4.80;;
579;SDS011;276;48.392;9.950;2023-06-01T05:40:41;7.53;;;5.73;;
579;SDS011;276;48.392;9.950;2023-06-01T05:43:10;6.33;;;5.10;;
579;SDS011;276;48.392;9.950;2023-06-01T05:45:38;8.53;;;5.40;;
579;SDS011;276;48.392;9.950;2023-06-01T05:48:04;7.47;;;5.30;;
579;SDS011;276;48.392;9.950;2023-06-01T05:50:34;5.93;;;5.40;;
579;SDS011;276;48.392;9.950;2023-06-01T05:53:02;5.10;;;4.70;;
579;SDS011;276;48.392;9.950;2023-06-01T05:55:27;5.43;;;4.87;;
579;SDS011;276;48.392;9.950;2023-06-01T05:57:53;6.43;;;5.27;;
579;SDS011;276;48.392;9.950;2023-06-01T06:00:18;4.83;;;4.40;;
579;SDS011;276;48.392;9.950;2023-06-01T06:02:47;5.10;;;4.30;;
579;SDS011;276;48.392;9.950;2023-06-01T06:05:15;6.23;;;5.63;;
579;SDS011;276;48.392;9.950;2023-06-01T06:07:41;6.30;;;5.70;;
579;SDS011;276;48.392;9.950;2023-06-01T06:10:06;6.40;;;5.80;;
579;SDS011;276;48.392;9.950;2023-06-01T06:12:32;6.97;;;6.10;;
579;SDS011;276;48.392;9.950;2023-06-01T06:14:58;6.77;;;6.13;;
579;SDS011;276;48.392;9.950;2023-06-01T06:17:26;6.40;;;5.80;;
579;SDS011;276;48.392;9.950;2023-06-01T06:19:54;7.40;;;6.33;;
579;SDS011;276;48.392;9.950;2023-06-01T06:22:20;6.57;;;6.07;;
579;SDS011;276;48.392;9.950;2023-06-01T06:24:45;6.03;;;5.50;;
579;SDS011;276;48.392;9.950;2023-06-01T06:27:12;5.37;;;4.80;;
579;SDS011;276;48.392;9.950;2023-06-01T06:29:37;6.50;;;5.67;;
579;SDS011;276;48.392;9.950;2023-06-01T06:32:03;5.50;;;5.00;;
579;SDS011;276;48.392;9.950;2023-06-01T06:34:31;6.13;;;5.53;;
579;SDS011;276;48.392;9.950;2023-06-01T06:37:06;6.67;;;5.27;;
579;SDS011;276;48.392;9.950;2023-06-01T06:39:36;4.93;;;4.53;;
579;SDS011;276;48.392;9.950;2023-06-01T06:42:02;5.70;;;5.17;;
579;SDS011;276;48.392;9.950;2023-06-01T06:44:31;6.30;;;5.70;;
579;SDS011;276;48.392;9.950;2023-06-01T06:46:57;5.43;;;4.53;;
579;SDS011;276;48.392;9.950;2023-06-01T06:49:26;6.33;;;4.60;;
579;SDS011;276;48.392;9.950;2023-06-01T06:51:52;7.20;;;5.10;;
579;SDS011;276;48.392;9.950;2023-06-01T06:54:21;7.30;;;4.40;;
579;SDS011;276;48.392;9.950;2023-06-01T06:56:48;6.40;;;4.90;;
579;SDS011;276;48.392;9.950;2023-06-01T06:59:14;7.30;;;5.00;;
579;SDS011;276;48.392;9.950;2023-06-01T07:01:40;5.50;;;5.00;;
579;SDS011;276;48.392;9.950;2023-06-01T07:04:08;6.47;;;5.80;;
579;SDS011;276;48.392;9.950;2023-06-01T07:06:33;6.20;;;5.03;;
579;SDS011;276;48.392;9.950;2023-06-01T07:09:02;5.83;;;5.33;;
579;SDS011;276;48.392;9.950;2023-06-01T07:11:30;6.40;;;5.10;;
579;SDS011;276;48.392;9.950;2023-06-01T07:13:58;5.87;;;5.27;;
579;SDS011;276;48.392;9.950;2023-06-01T07:16:24;6.87;;;5.60;;
579;SDS011;276;48.392;9.950;2023-06-01T07:18:53;8.93;;;5.50;;
579;SDS011;276;48.392;9.950;2023-06-01T07:21:19;4.90;;;4.50;;
579;SDS011;276;48.392;9.950;2023-06-01T07:23:45;5.47;;;4.97;;
579;SDS011;276;48.392;9.950;2023-06-01T07:26:11;7.30;;;5.43;;
579;SDS011;276;48.392;9.950;2023-06-01T07:28:37;6.30;;;5.80;;
579;SDS011;276;48.392;9.950;2023-06-01T07:31:03;6.60;;;4.77;;
579;SDS011;276;48.392;9.950;2023-06-01T07:33:29;5.67;;;5.00;;
579;SDS011;276;48.392;9.950;2023-06-01T07:35:55;7.47;;;5.27;;
579;SDS011;276;48.392;9.950;2023-06-01T07:38:23;6.93;;;4.97;;
579;SDS011;276;48.392;9.950;2023-06-01T07:40:49;5.73;;;5.23;;
579;SDS011;276;48.392;9.950;2023-06-01T07:43:15;5.77;;;5.27;;
579;SDS011;276;48.392;9.950;2023-06-01T07:45:41;4.87;;;4.47;;
579;SDS011;276;48.392;9.950;2023-06-01T07:48:07;6.00;;;5.40;;
579;SDS011;276;48.392;9.950;2023-06-01T07:50:33;4.90;;;4.50;;
579;SDS011;276;48.392;9.950;2023-06-01T07:52:58;6.17;;;5.43;;
579;SDS011;276;48.392;9.950;2023-06-01T07:55:27;6.00;;;4.70;;
579;SDS011;276;48.392;9.950;2023-06-01T07:57:53;5.57;;;5.07;;
579;SDS011;276;48.392;9.950;2023-06-01T08:00:19;9.20;;;5.83;;
579;SDS011;276;48.392;9.950;2023-06-01T08:02:45;5.70;;;5.20;;
579;SDS011;276;48.392;9.950;2023-06-01T08:05:10;9.03;;;5.60;;
579;SDS011;276;48.392;9.950;2023-06-01T08:07:36;7.13;;;6.37;;
579;SDS011;276;48.392;9.950;2023-06-01T08:10:08;8.10;;;6.00;;
579;SDS011;276;48.392;9.950;2023-06-01T08:12:36;5.00;;;4.50;;
579;SDS011;276;48.392;9.950;2023-06-01T08:15:02;6.50;;;5.20;;
579;SDS011;276;48.392;9.950;2023-06-01T08:17:28;6.80;;;5.37;;
579;SDS011;276;48.392;9.950;2023-06-01T08:19:54;7.40;;;4.67;;
579;SDS011;276;48.392;9.950;2023-06-01T08:22:22;5.47;;;4.97;;
579;SDS011;276;48.392;9.950;2023-06-01T08:24:52;9.83;;;5.30;;
579;SDS011;276;48.392;9.950;2023-06-01T08:27:20;5.20;;;4.73;;
579;SDS011;276;48.392;9.950;2023-06-01T08:29:47;6.07;;;5.23;;
579;SDS011;276;48.392;9.950;2023-06-01T08:32:14;6.87;;;6.00;;
579;SDS011;276;48.392;9.950;2023-06-01T08:34:40;5.13;;;4.67;;
579;SDS011;276;48.392;9.950;2023-06-01T08:37:08;6.43;;;5.60;;
579;SDS011;276;48.392;9.950;2023-06-01T08:39:33;6.43;;;5.20;;
579;SDS011;276;48.392;9.950;2023-06-01T08:45:01;5.77;;;5.27;;
579;SDS011;276;48.392;9.950;2023-06-01T08:47:30;5.90;;;5.30;;
579;SDS011;276;48.392;9.950;2023-06-01T08:50:02;5.67;;;5.07;;
579;SDS011;276;48.392;9.950;2023-06-01T08:52:28;6.17;;;5.27;;
579;SDS011;276;48.392;9.950;2023-06-01T08:55:00;5.50;;;5.00;;
579;SDS011;276;48.392;9.950;2023-06-01T08:57:30;5.57;;;4.93;;
579;SDS011;276;48.392;9.950;2023-06-01T08:59:56;5.80;;;5.23;;
579;SDS011;276;48.392;9.950;2023-06-01T09:02:25;7.83;;;5.20;;
579;SDS011;276;48.392;9.950;2023-06-01T09:04:52;7.40;;;5.30;;
579;SDS011;276;48.392;9.950;2023-06-01T09:07:18;5.87;;;4.50;;
579;SDS011;276;48.392;9.950;2023-06-01T09:09:48;5.00;;;4.60;;
579;SDS011;276;48.392;9.950;2023-06-01T09:17:36;5.63;;;5.13;;
579;SDS011;276;48.392;9.950;2023-06-01T09:20:05;5.33;;;4.83;;
579;SDS011;276;48.392;9.950;2023-06-01T09:22:39;5.93;;;5.43;;
579;SDS011;276;48.392;9.950;2023-06-01T09:25:09;6.10;;;5.27;;
579;SDS011;276;48.392;9.950;2023-06-01T09:27:48;7.50;;;5.57;;
579;SDS011;276;48.392;9.950;2023-06-01T09:30:15;6.30;;;5.23;;
579;SDS011;276;48.392;9.950;2023-06-01T09:32:46;6.37;;;5.80;;
579;SDS011;276;48.392;9.950;2023-06-01T09:38:05;6.30;;;5.80;;
579;SDS011;276;48.392;9.950;2023-06-01T09:40:32;6.17;;;5.60;;
579;SDS011;276;48.392;9.950;2023-06-01T09:42:58;5.90;;;5.27;;
579;SDS011;276;48.392;9.950;2023-06-01T09:45:24;6.17;;;5.67;;
579;SDS011;276;48.392;9.950;2023-06-01T09:47:51;6.90;;;5.90;;
579;SDS011;276;48.392;9.950;2023-06-01T09:50:37;6.50;;;5.93;;
579;SDS011;276;48.392;9.950;2023-06-01T09:53:06;8.53;;;6.60;;
579;SDS011;276;48.392;9.950;2023-06-01T09:55:34;6.40;;;5.77;;
579;SDS011;276;48.392;9.950;2023-06-01T09:58:25;5.70;;;5.20;;
579;SDS011;276;48.392;9.950;2023-06-01T10:00:51;6.07;;;5.43;;
579;SDS011;276;48.392;9.950;2023-06-01T10:03:18;5.40;;;4.90;;
579;SDS011;276;48.392;9.950;2023-06-01T10:05:45;5.77;;;5.23;;
579;SDS011;276;48.392;9.950;2023-06-01T10:08:13;6.97;;;6.33;;
579;SDS011;276;48.392;9.950;2023-06-01T10:10:42;6.30;;;5.70;;
579;SDS011;276;48.392;9.950;2023-06-01T10:13:09;6.30;;;5.20;;
579;SDS011;276;48.392;9.950;2023-06-01T10:15:36;6.80;;;6.23;;
579;SDS011;276;48.392;9.950;2023-06-01T10:18:02;7.73;;;5.43;;
579;SDS011;276;48.392;9.950;2023-06-01T10:20:32;5.10;;;4.70;;
579;SDS011;276;48.392;9.950;2023-06-01T10:23:02;5.30;;;4.90;;
579;SDS011;276;48.392;9.950;2023-06-01T10:25:34;5.80;;;5.30;;
579;SDS011;276;48.392;9.950;2023-06-01T10:28:09;6.27;;;5.70;;
579;SDS011;276;48.392;9.950;2023-06-01T10:30:39;5.67;;;4.63;;
579;SDS011;276;48.392;9.950;2023-06-01T10:33:07;6.20;;;5.70;;
579;SDS011;276;48.392;9.950;2023-06-01T10:40:40;5.67;;;5.17;;
579;SDS011;276;48.392;9.950;2023-06-01T10:43:07;7.17;;;5.10;;
579;SDS011;276;48.392;9.950;2023-06-01T10:45:53;7.20;;;5.10;;
579;SDS011;276;48.392;9.950;2023-06-01T10:48:20;7.40;;;5.67;;
579;SDS011;276;48.392;9.950;2023-06-01T10:51:21;6.33;;;5.80;;
579;SDS011;276;48.392;9.950;2023-06-01T10:53:50;7.40;;;5.50;;
579;SDS011;276;48.392;9.950;2023-06-01T10:56:21;6.30;;;5.80;;
579;SDS011;276;48.392;9.950;2023-06-01T11:01:35;6.80;;;6.20;;
579;SDS011;276;48.392;9.950;2023-06-01T11:04:08;7.27;;;5.27;;
579;SDS011;276;48.392;9.950;2023-06-01T11:06:34;7.33;;;6.10;;
579;SDS011;276;48.392;9.950;2023-06-01T11:09:06;5.00;;;4.60;;
579;SDS011;276;48.392;9.950;2023-06-01T11:14:24;6.50;;;4.90;;
579;SDS011;276;48.392;9.950;2023-06-01T11:16:54;7.23;;;5.50;;
579;SDS011;276;48.392;9.950;2023-06-01T11:19:25;6.60;;;5.80;;
579;SDS011;276;48.392;9.950;2023-06-01T11:21:58;5.63;;;5.17;;
579;SDS011;276;48.392;9.950;2023-06-01T11:24:35;7.17;;;6.03;;
579;SDS011;276;48.392;9.950;2023-06-01T11:27:05;8.97;;;6.70;;
579;SDS011;276;48.392;9.950;2023-06-01T11:29:32;6.03;;;4.93;;
579;SDS011;276;48.392;9.950;2023-06-01T11:31:59;6.10;;;5.50;;
579;SDS011;276;48.392;9.950;2023-06-01T11:34:30;6.10;;;5.50;;
579;SDS011;276;48.392;9.950;2023-06-01T11:37:02;6.87;;;6.27;;
579;SDS011;276;48.392;9.950;2023-06-01T11:39:30;6.80;;;5.73;;
579;SDS011;276;48.392;9.950;2023-06-01T11:42:06;10.13;;;6.10;;
579;SDS011;276;48.392;9.950;2023-06-01T11:44:36;5.70;;;5.20;;
579;SDS011;276;48.392;9.950;2023-06-01T11:47:05;6.80;;;6.10;;
579;SDS011;276;48.392;9.950;2023-06-01T11:49:41;5.57;;;5.07;;
579;SDS011;276;48.392;9.950;2023-06-01T11:52:09;6.27;;;5.67;;
579;SDS011;276;48.392;9.950;2023-06-01T11:54:39;6.00;;;4.60;;
579;SDS011;276;48.392;9.950;2023-06-01T11:57:05;6.27;;;5.67;;
579;SDS011;276;48.392;9.950;2023-06-01T12:04:58;6.63;;;6.10;;
579;SDS011;276;48.392;9.950;2023-06-01T12:07:25;5.10;;;4.70;;
579;SDS011;276;48.392;9.950;2023-06-01T12:09:51;5.23;;;4.83;;
579;SDS011;276;48.392;9.950;2023-06-01T12:12:23;7.10;;;6.27;;
579;SDS011;276;48.392;9.950;2023-06-01T12:14:50;6.10;;;5.50;;
579;SDS011;276;48.392;9.950;2023-06-01T12:17:18;6.13;;;5.53;;
579;SDS011;276;48.392;9.950;2023-06-01T12:19:47;6.47;;;5.87;;
579;SDS011;276;48.392;9.950;2023-06-01T12:22:14;5.73;;;5.23;;
579;SDS011;276;48.392;9.950;2023-06-01T12:24:41;6.10;;;5.20;;
579;SDS011;276;48.392;9.950;2023-06-01T12:27:15;6.03;;;5.53;;
579;SDS011;276;48.392;9.950;2023-06-01T12:29:45;5.37;;;4.87;;
579;SDS011;276;48.392;9.950;2023-06-01T12:32:17;4.43;;;4.10;;
579;SDS011;276;48.392;9.950;2023-06-01T12:35:02;6.00;;;5.50;;
579;SDS011;276;48.392;9.950;2023-06-01T12:37:28;7.10;;;5.43;;
579;SDS011;276;48.392;9.950;2023-06-01T12:39:57;6.20;;;5.67;;
579;SDS011;276;48.392;9.950;2023-06-01T12:42:37;5.27;;;4.87;;
579;SDS011;276;48.392;9.950;2023-06-01T12:45:07;5.70;;;5.20;;
579;SDS011;276;48.392;9.950;2023-06-01T12:47:39;6.10;;;5.60;;
579;SDS011;276;48.392;9.950;2023-06-01T12:50:10;5.23;;;4.80;;
579;SDS011;276;48.392;9.950;2023-06-01T12:52:37;5.00;;;4.40;;
579;SDS011;276;48.392;9.950;2023-06-01T12:55:07;6.73;;;5.57;;
579;SDS011;276;48.392;9.950;2023-06-01T12:57:33;5.93;;;5.17;;
579;SDS011;276;48.392;9.950;2023-06-01T13:00:05;6.13;;;5.63;;
579;SDS011;276;48.392;9.950;2023-06-01T13:02:33;5.80;;;5.20;;
579;SDS011;276;48.392;9.950;2023-06-01T13:05:02;6.20;;;5.60;;
579;SDS011;276;48.392;9.950;2023-06-01T13:07:29;5.30;;;4.90;;
579;SDS011;276;48.392;9.950;2023-06-01T13:09:57;5.57;;;5.00;;
579;SDS011;276;48.392;9.950;2023-06-01T13:12:23;4.77;;;4.47;;
579;SDS011;276;48.392;9.950;2023-06-01T13:14:52;5.27;;;4.73;;
579;SDS011;276;48.392;9.950;2023-06-01T13:17:18;6.27;;;5.67;;
579;SDS011;276;48.392;9.950;2023-06-01T13:19:44;6.33;;;5.40;;
579;SDS011;276;48.392;9.950;2023-06-01T13:22:10;5.03;;;4.63;;
579;SDS011;276;48.392;9.950;2023-06-01T13:24:36;5.53;;;5.03;;
579;SDS011;276;48.392;9.950;2023-06-01T13:27:04;4.87;;;4.47;;
579;SDS011;276;48.392;9.950;2023-06-01T13:29:30;5.93;;;5.23;;
579;SDS011;276;48.392;9.950;2023-06-01T13:31:56;4.00;;;3.70;;
579;SDS011;276;48.392;9.950;2023-06-01T13:34:23;5.60;;;5.10;;
579;SDS011;276;48.392;9.950;2023-06-01T13:36:51;6.63;;;4.77;;
579;SDS011;276;48.392;9.950;2023-06-01T13:39:20;5.97;;;5.00;;
579;SDS011;276;48.392;9.950;2023-06-01T13:41:46;5.83;;;5.40;;
579;SDS011;276;48.392;9.950;2023-06-01T13:44:14;6.10;;;5.40;;
579;SDS011;276;48.392;9.950;2023-06-01T13:46:45;5.20;;;4.70;;
579;SDS011;276;48.392;9.950;2023-06-01T13:49:10;5.73;;;5.13;;
579;SDS011;276;48.392;9.950;2023-06-01T13:51:38;5.90;;;5.40;;
579;SDS011;276;48.392;9.950;2023-06-01T13:54:06;6.43;;;4.87;;
579;SDS011;276;48.392;9.950;2023-06-01T13:56:35;9.03;;;6.40;;
579;SDS011;276;48.392;9.950;2023-06-01T13:59:00;6.50;;;5.90;;
579;SDS011;276;48.392;9.950;2023-06-01T14:01:31;6.37;;;5.77;;
579;SDS011;276;48.392;9.950;2023-06-01T14:03:57;6.20;;;5.60;;
579;SDS011;276;48.392;9.950;2023-06-01T14:06:22;5.67;;;5.17;;
579;SDS011;276;48.392;9.950;2023-06-01T14:08:50;6.00;;;5.43;;
579;SDS011;276;48.392;9.950;2023-06-01T14:11:16;5.40;;;4.90;;
579;SDS011;276;48.392;9.950;2023-06-01T14:13:42;5.33;;;4.93;;
579;SDS011;276;48.392;9.950;2023-06-01T14:16:07;5.67;;;5.17;;
579;SDS011;276;48.392;9.950;2023-06-01T14:18:33;5.97;;;5.47;;
579;SDS011;276;48.392;9.950;2023-06-01T14:21:05;7.93;;;5.90;;
579;SDS011;276;48.392;9.950;2023-06-01T14:23:30;6.13;;;5.63;;
579;SDS011;276;48.392;9.950;2023-06-01T14:25:58;5.17;;;4.77;;
579;SDS011;276;48.392;9.950;2023-06-01T14:28:24;5.83;;;5.33;;
579;SDS011;276;48.392;9.950;2023-06-01T14:30:49;6.13;;;5.63;;
579;SDS011;276;48.392;9.950;2023-06-01T14:33:15;5.27;;;4.80;;
579;SDS011;276;48.392;9.950;2023-06-01T14:35:43;6.13;;;5.63;;
579;SDS011;276;48.392;9.950;2023-06-01T14:38:09;4.90;;;4.50;;
579;SDS011;276;48.392;9.950;2023-06-01T14:40:34;6.50;;;6.00;;
579;SDS011;276;48.392;9.950;2023-06-01T14:43:02;5.77;;;5.20;;
579;SDS011;276;48.392;9.950;2023-06-01T14:45:30;6.73;;;6.13;;
579;SDS011;276;48.392;9.950;2023-06-01T14:47:58;5.37;;;4.87;;
579;SDS011;276;48.392;9.950;2023-06-01T14:50:24;6.33;;;5.73;;
579;SDS011;276;48.392;9.950;2023-06-01T14:52:50;6.10;;;5.53;;
579;SDS011;276;48.392;9.950;2023-06-01T14:55:17;5.60;;;5.10;;
579;SDS011;276;48.392;9.950;2023-06-01T14:57:45;6.23;;;5.70;;
579;SDS011;276;48.392;9.950;2023-06-01T15:00:13;5.07;;;4.57;;
579;SDS011;276;48.392;9.950;2023-06-01T15:02:39;6.20;;;5.70;;
579;SDS011;276;48.392;9.950;2023-06-01T15:05:05;5.80;;;5.40;;
579;SDS011;276;48.392;9.950;2023-06-01T15:07:33;5.77;;;5.27;;
579;SDS011;276;48.392;9.950;2023-06-01T15:10:01;5.43;;;5.00;;
579;SDS011;276;48.392;9.950;2023-06-01T15:12:27;5.43;;;4.93;;
579;SDS011;276;48.392;9.950;2023-06-01T15:14:58;5.70;;;5.20;;
579;SDS011;276;48.392;9.950;2023-06-01T15:17:26;5.07;;;4.63;;
579;SDS011;276;48.392;9.950;2023-06-01T15:19:51;13.93;;;5.80;;
579;SDS011;276;48.392;9.950;2023-06-01T15:22:19;5.67;;;5.17;;
579;SDS011;276;48.392;9.950;2023-06-01T15:24:45;4.90;;;4.40;;
579;SDS011;276;48.392;9.950;2023-06-01T15:27:10;5.40;;;5.00;;
579;SDS011;276;48.392;9.950;2023-06-01T15:29:41;5.60;;;5.20;;
579;SDS011;276;48.392;9.950;2023-06-01T15:32:12;6.57;;;5.97;;
579;SDS011;276;48.392;9.950;2023-06-01T15:34:40;7.57;;;5.70;;
579;SDS011;276;48.392;9.950;2023-06-01T15:37:07;5.63;;;5.13;;
579;SDS011;276;48.392;9.950;2023-06-01T15:39:35;6.93;;;6.30;;
579;SDS011;276;48.392;9.950;2023-06-01T15:42:08;6.63;;;6.03;;
579;SDS011;276;48.392;9.950;2023-06-01T15:44:40;6.20;;;5.70;;
579;SDS011;276;48.392;9.950;2023-06-01T15:47:07;5.33;;;4.93;;
579;SDS011;276;48.392;9.950;2023-06-01T15:49:33;5.83;;;5.33;;
579;SDS011;276;48.392;9.950;2023-06-01T15:52:01;6.23;;;5.63;;
579;SDS011;276;48.392;9.950;2023-06-01T15:54:30;5.03;;;4.13;;
579;SDS011;276;48.392;9.950;2023-06-01T15:56:56;5.30;;;4.77;;
579;SDS011;276;48.392;9.950;2023-06-01T15:59:25;6.13;;;5.53;;
579;SDS011;276;48.392;9.950;2023-06-01T16:01:51;5.80;;;4.90;;
579;SDS011;276;48.392;9.950;2023-06-01T16:04:17;5.10;;;4.70;;
579;SDS011;276;48.392;9.950;2023-06-01T16:06:42;4.90;;;4.60;;
579;SDS011;276;48.392;9.950;2023-06-01T16:09:11;5.60;;;5.13;;
579;SDS011;276;48.392;9.950;2023-06-01T16:11:36;6.40;;;5.90;;
579;SDS011;276;48.392;9.950;2023-06-01T16:14:04;5.77;;;5.37;;
579;SDS011;276;48.392;9.950;2023-06-01T16:16:31;6.13;;;5.03;;
579;SDS011;276;48.392;9.950;2023-06-01T16:19:04;7.70;;;5.07;;
579;SDS011;276;48.392;9.950;2023-06-01T16:21:30;6.50;;;6.00;;
579;SDS011;276;48.392;9.950;2023-06-01T16:23:57;5.13;;;4.73;;
579;SDS011;276;48.392;9.950;2023-06-01T16:26:24;5.00;;;4.60;;
579;SDS011;276;48.392;9.950;2023-06-01T16:28:52;6.20;;;5.70;;